sensor_id;sensor_type;location;lat;lon;timestamp;P1;durP1;ratioP1;P2;durP2;ratioP2
19285;SDS011;9776;50.798;6.430;2023-04-25T00:00:03;7.90;;;3.40;;
19285;SDS011;9776;50.798;6.430;2023-04-25T00:02:32;8.95;;;3.50;;
19285;SDS011;9776;50.798;6.430;2023-04-25T00:04:59;8.90;;;3.38;;
19285;SDS011;9776;50.798;6.430;2023-04-25T00:07:26;9.15;;;3.30;;
19285;SDS011;9776;50.798;6.430;2023-04-25T00:09:54;9.52;;;3.63;;
19285;SDS011;9776;50.798;6.430;2023-04-25T00:12:21;6.13;;;3.25;;
19285;SDS011;9776;50.798;6.430;2023-04-25T00:14:48;11.50;;;3.47;;
19285;SDS011;9776;50.798;6.430;2023-04-25T00:17:16;10.27;;;3.20;;
19285;SDS011;9776;50.798;6.430;2023-04-25T00:19:44;8.18;;;3.50;;
19285;SDS011;9776;50.798;6.430;2023-04-25T00:22:11;9.50;;;3.42;;
19285;SDS011;9776;50.798;6.430;2023-04-25T00:24:38;7.97;;;3.58;;
19285;SDS011;9776;50.798;6.430;2023-04-25T00:27:06;8.40;;;3.67;;
19285;SDS011;9776;50.798;6.430;2023-04-25T00:29:32;12.52;;;3.40;;
19285;SDS011;9776;50.798;6.430;2023-04-25T00:31:59;8.52;;;3.22;;
19285;SDS011;9776;50.798;6.430;2023-04-25T00:34:26;9.13;;;3.67;;
19285;SDS011;9776;50.798;6.430;2023-04-25T00:36:53;5.63;;;3.10;;
19285;SDS011;9776;50.798;6.430;2023-04-25T00:39:19;8.98;;;3.58;;
19285;SDS011;9776;50.798;6.430;2023-04-25T00:41:46;7.85;;;3.42;;
19285;SDS011;9776;50.798;6.430;2023-04-25T00:44:15;10.15;;;3.55;;
19285;SDS011;9776;50.798;6.430;2023-04-25T00:46:43;9.45;;;3.25;;
19285;SDS011;9776;50.798;6.430;2023-04-25T00:49:10;6.53;;;3.30;;
19285;SDS011;9776;50.798;6.430;2023-04-25T00:51:40;9.38;;;3.85;;
19285;SDS011;9776;50.798;6.430;2023-04-25T00:54:09;10.98;;;4.25;;
19285;SDS011;9776;50.798;6.430;2023-04-25T00:56:35;8.68;;;3.63;;
19285;SDS011;9776;50.798;6.430;2023-04-25T00:59:02;7.25;;;3.53;;
19285;SDS011;9776;50.798;6.430;2023-04-25T01:01:31;8.73;;;3.80;;
19285;SDS011;9776;50.798;6.430;2023-04-25T01:03:58;8.40;;;4.20;;
19285;SDS011;9776;50.798;6.430;2023-04-25T01:06:25;11.35;;;4.18;;
19285;SDS011;9776;50.798;6.430;2023-04-25T01:08:52;8.18;;;4.07;;
19285;SDS011;9776;50.798;6.430;2023-04-25T01:11:19;9.38;;;3.90;;
19285;SDS011;9776;50.798;6.430;2023-04-25T01:13:46;8.90;;;3.55;;
19285;SDS011;9776;50.798;6.430;2023-04-25T01:16:12;10.63;;;4.20;;
19285;SDS011;9776;50.798;6.430;2023-04-25T01:18:41;7.70;;;3.90;;
19285;SDS011;9776;50.798;6.430;2023-04-25T01:21:10;8.25;;;4.07;;
19285;SDS011;9776;50.798;6.430;2023-04-25T01:23:38;9.45;;;3.83;;
19285;SDS011;9776;50.798;6.430;2023-04-25T01:26:06;8.35;;;4.13;;
19285;SDS011;9776;50.798;6.430;2023-04-25T01:28:34;8.18;;;4.20;;
19285;SDS011;9776;50.798;6.430;2023-04-25T01:31:01;9.23;;;3.90;;
19285;SDS011;9776;50.798;6.430;2023-04-25T01:33:28;9.93;;;4.45;;
19285;SDS011;9776;50.798;6.430;2023-04-25T01:35:55;11.80;;;4.10;;
19285;SDS011;9776;50.798;6.430;2023-04-25T01:38:23;10.48;;;4.43;;
19285;SDS011;9776;50.798;6.430;2023-04-25T01:40:50;9.40;;;4.07;;
19285;SDS011;9776;50.798;6.430;2023-04-25T01:43:17;10.70;;;4.10;;
19285;SDS011;9776;50.798;6.430;2023-04-25T01:45:44;9.20;;;4.15;;
19285;SDS011;9776;50.798;6.430;2023-04-25T01:48:12;10.75;;;4.38;;
19285;SDS011;9776;50.798;6.430;2023-04-25T01:50:40;9.52;;;4.30;;
19285;SDS011;9776;50.798;6.430;2023-04-25T01:53:07;8.18;;;3.97;;
19285;SDS011;9776;50.798;6.430;2023-04-25T01:55:37;10.02;;;4.55;;
19285;SDS011;9776;50.798;6.430;2023-04-25T01:58:03;10.43;;;4.00;;
19285;SDS011;9776;50.798;6.430;2023-04-25T02:00:34;11.40;;;3.80;;
19285;SDS011;9776;50.798;6.430;2023-04-25T02:03:03;7.90;;;3.92;;
19285;SDS011;9776;50.798;6.430;2023-04-25T02:05:33;8.85;;;3.50;;
19285;SDS011;9776;50.798;6.430;2023-04-25T02:08:00;7.18;;;3.90;;
19285;SDS011;9776;50.798;6.430;2023-04-25T02:10:27;11.52;;;4.25;;
19285;SDS011;9776;50.798;6.430;2023-04-25T02:12:55;11.35;;;4.45;;
19285;SDS011;9776;50.798;6.430;2023-04-25T02:15:23;8.63;;;3.78;;
19285;SDS011;9776;50.798;6.430;2023-04-25T02:17:49;10.32;;;4.32;;
19285;SDS011;9776;50.798;6.430;2023-04-25T02:20:17;5.70;;;3.50;;
19285;SDS011;9776;50.798;6.430;2023-04-25T02:22:44;8.18;;;3.63;;
19285;SDS011;9776;50.798;6.430;2023-04-25T02:25:11;7.78;;;3.83;;
19285;SDS011;9776;50.798;6.430;2023-04-25T02:27:38;12.32;;;3.83;;
19285;SDS011;9776;50.798;6.430;2023-04-25T02:30:07;12.93;;;3.78;;
19285;SDS011;9776;50.798;6.430;2023-04-25T02:32:34;8.57;;;3.75;;
19285;SDS011;9776;50.798;6.430;2023-04-25T02:35:01;9.82;;;3.85;;
19285;SDS011;9776;50.798;6.430;2023-04-25T02:37:28;10.85;;;3.58;;
19285;SDS011;9776;50.798;6.430;2023-04-25T02:39:55;8.10;;;3.33;;
19285;SDS011;9776;50.798;6.430;2023-04-25T02:42:22;11.88;;;3.90;;
19285;SDS011;9776;50.798;6.430;2023-04-25T02:44:48;11.65;;;3.67;;
19285;SDS011;9776;50.798;6.430;2023-04-25T02:47:16;11.80;;;3.17;;
19285;SDS011;9776;50.798;6.430;2023-04-25T02:49:43;8.75;;;3.55;;
19285;SDS011;9776;50.798;6.430;2023-04-25T02:52:10;14.02;;;3.67;;
19285;SDS011;9776;50.798;6.430;2023-04-25T02:54:37;7.93;;;3.60;;
19285;SDS011;9776;50.798;6.430;2023-04-25T02:57:04;11.23;;;3.22;;
19285;SDS011;9776;50.798;6.430;2023-04-25T02:59:30;10.15;;;3.53;;
19285;SDS011;9776;50.798;6.430;2023-04-25T03:01:57;11.45;;;3.40;;
19285;SDS011;9776;50.798;6.430;2023-04-25T03:04:25;11.35;;;3.72;;
19285;SDS011;9776;50.798;6.430;2023-04-25T03:06:52;9.30;;;3.38;;
19285;SDS011;9776;50.798;6.430;2023-04-25T03:09:20;8.88;;;3.10;;
19285;SDS011;9776;50.798;6.430;2023-04-25T03:11:46;8.98;;;3.55;;
19285;SDS011;9776;50.798;6.430;2023-04-25T03:14:13;9.52;;;3.72;;
19285;SDS011;9776;50.798;6.430;2023-04-25T03:16:40;10.15;;;3.38;;
19285;SDS011;9776;50.798;6.430;2023-04-25T03:19:06;15.30;;;3.60;;
19285;SDS011;9776;50.798;6.430;2023-04-25T03:21:35;13.50;;;3.42;;
19285;SDS011;9776;50.798;6.430;2023-04-25T03:24:03;12.32;;;3.63;;
19285;SDS011;9776;50.798;6.430;2023-04-25T03:26:30;13.23;;;3.70;;
19285;SDS011;9776;50.798;6.430;2023-04-25T03:28:57;9.32;;;3.47;;
19285;SDS011;9776;50.798;6.430;2023-04-25T03:31:23;9.55;;;3.17;;
19285;SDS011;9776;50.798;6.430;2023-04-25T03:33:50;7.60;;;3.40;;
19285;SDS011;9776;50.798;6.430;2023-04-25T03:36:17;8.15;;;3.45;;
19285;SDS011;9776;50.798;6.430;2023-04-25T03:38:45;9.77;;;3.97;;
19285;SDS011;9776;50.798;6.430;2023-04-25T03:41:13;9.30;;;3.47;;
19285;SDS011;9776;50.798;6.430;2023-04-25T03:43:39;7.82;;;3.30;;
19285;SDS011;9776;50.798;6.430;2023-04-25T03:46:06;8.48;;;3.38;;
19285;SDS011;9776;50.798;6.430;2023-04-25T03:48:33;10.57;;;3.70;;
19285;SDS011;9776;50.798;6.430;2023-04-25T03:50:59;8.52;;;3.42;;
19285;SDS011;9776;50.798;6.430;2023-04-25T03:53:26;9.02;;;3.35;;
19285;SDS011;9776;50.798;6.430;2023-04-25T03:55:54;9.88;;;3.50;;
19285;SDS011;9776;50.798;6.430;2023-04-25T03:58:20;12.70;;;3.47;;
19285;SDS011;9776;50.798;6.430;2023-04-25T04:00:48;8.18;;;2.97;;
19285;SDS011;9776;50.798;6.430;2023-04-25T04:03:14;7.85;;;3.17;;
19285;SDS011;9776;50.798;6.430;2023-04-25T04:05:41;8.73;;;3.22;;
19285;SDS011;9776;50.798;6.430;2023-04-25T04:08:07;9.73;;;3.42;;
19285;SDS011;9776;50.798;6.430;2023-04-25T04:10:34;9.90;;;3.28;;
19285;SDS011;9776;50.798;6.430;2023-04-25T04:13:02;7.60;;;3.08;;
19285;SDS011;9776;50.798;6.430;2023-04-25T04:15:29;8.25;;;3.45;;
19285;SDS011;9776;50.798;6.430;2023-04-25T04:17:57;9.70;;;3.53;;
19285;SDS011;9776;50.798;6.430;2023-04-25T04:20:27;7.72;;;3.20;;
19285;SDS011;9776;50.798;6.430;2023-04-25T04:22:54;11.43;;;3.33;;
19285;SDS011;9776;50.798;6.430;2023-04-25T04:25:21;11.93;;;3.13;;
19285;SDS011;9776;50.798;6.430;2023-04-25T04:27:47;7.20;;;3.22;;
19285;SDS011;9776;50.798;6.430;2023-04-25T04:30:18;6.88;;;2.95;;
19285;SDS011;9776;50.798;6.430;2023-04-25T04:32:45;9.15;;;3.45;;
19285;SDS011;9776;50.798;6.430;2023-04-25T04:35:11;14.50;;;3.10;;
19285;SDS011;9776;50.798;6.430;2023-04-25T04:37:38;10.63;;;3.08;;
19285;SDS011;9776;50.798;6.430;2023-04-25T04:40:05;9.70;;;3.50;;
19285;SDS011;9776;50.798;6.430;2023-04-25T04:42:32;8.27;;;2.97;;
19285;SDS011;9776;50.798;6.430;2023-04-25T04:45:01;8.40;;;3.10;;
19285;SDS011;9776;50.798;6.430;2023-04-25T04:47:29;10.48;;;3.53;;
19285;SDS011;9776;50.798;6.430;2023-04-25T04:49:56;9.20;;;3.28;;
19285;SDS011;9776;50.798;6.430;2023-04-25T04:52:22;11.20;;;3.28;;
19285;SDS011;9776;50.798;6.430;2023-04-25T04:54:49;11.65;;;3.72;;
19285;SDS011;9776;50.798;6.430;2023-04-25T04:57:16;7.40;;;3.15;;
19285;SDS011;9776;50.798;6.430;2023-04-25T04:59:42;13.60;;;4.07;;
19285;SDS011;9776;50.798;6.430;2023-04-25T05:02:09;7.32;;;2.95;;
19285;SDS011;9776;50.798;6.430;2023-04-25T05:04:37;12.40;;;3.33;;
19285;SDS011;9776;50.798;6.430;2023-04-25T05:07:04;12.90;;;3.90;;
19285;SDS011;9776;50.798;6.430;2023-04-25T05:09:30;11.93;;;3.60;;
19285;SDS011;9776;50.798;6.430;2023-04-25T05:11:57;8.52;;;3.22;;
19285;SDS011;9776;50.798;6.430;2023-04-25T05:14:23;14.30;;;3.92;;
19285;SDS011;9776;50.798;6.430;2023-04-25T05:16:50;7.72;;;3.03;;
19285;SDS011;9776;50.798;6.430;2023-04-25T05:19:16;9.02;;;3.05;;
19285;SDS011;9776;50.798;6.430;2023-04-25T05:21:44;7.50;;;3.78;;
19285;SDS011;9776;50.798;6.430;2023-04-25T05:24:11;13.95;;;3.20;;
19285;SDS011;9776;50.798;6.430;2023-04-25T05:26:38;13.23;;;3.50;;
19285;SDS011;9776;50.798;6.430;2023-04-25T05:29:04;12.65;;;4.20;;
19285;SDS011;9776;50.798;6.430;2023-04-25T05:31:31;21.65;;;13.55;;
19285;SDS011;9776;50.798;6.430;2023-04-25T05:33:58;12.38;;;3.65;;
19285;SDS011;9776;50.798;6.430;2023-04-25T05:36:24;12.18;;;3.80;;
19285;SDS011;9776;50.798;6.430;2023-04-25T05:38:53;8.32;;;3.22;;
19285;SDS011;9776;50.798;6.430;2023-04-25T05:41:20;10.50;;;3.45;;
19285;SDS011;9776;50.798;6.430;2023-04-25T05:43:46;12.20;;;3.75;;
19285;SDS011;9776;50.798;6.430;2023-04-25T05:46:14;14.10;;;3.72;;
19285;SDS011;9776;50.798;6.430;2023-04-25T05:48:42;10.48;;;3.65;;
19285;SDS011;9776;50.798;6.430;2023-04-25T05:51:08;17.42;;;3.67;;
19285;SDS011;9776;50.798;6.430;2023-04-25T05:53:35;13.68;;;3.78;;
19285;SDS011;9776;50.798;6.430;2023-04-25T05:56:03;13.68;;;3.90;;
19285;SDS011;9776;50.798;6.430;2023-04-25T05:58:30;12.07;;;3.45;;
19285;SDS011;9776;50.798;6.430;2023-04-25T06:00:57;11.70;;;3.58;;
19285;SDS011;9776;50.798;6.430;2023-04-25T06:03:24;13.82;;;3.95;;
19285;SDS011;9776;50.798;6.430;2023-04-25T06:05:51;11.00;;;3.53;;
19285;SDS011;9776;50.798;6.430;2023-04-25T06:08:17;13.73;;;3.95;;
19285;SDS011;9776;50.798;6.430;2023-04-25T06:10:44;11.65;;;4.38;;
19285;SDS011;9776;50.798;6.430;2023-04-25T06:13:12;17.23;;;4.00;;
19285;SDS011;9776;50.798;6.430;2023-04-25T06:15:39;13.98;;;3.53;;
19285;SDS011;9776;50.798;6.430;2023-04-25T06:18:05;10.05;;;3.70;;
19285;SDS011;9776;50.798;6.430;2023-04-25T06:20:32;10.68;;;3.47;;
19285;SDS011;9776;50.798;6.430;2023-04-25T06:22:59;12.63;;;4.22;;
19285;SDS011;9776;50.798;6.430;2023-04-25T06:25:26;11.85;;;4.38;;
19285;SDS011;9776;50.798;6.430;2023-04-25T06:27:52;15.10;;;3.83;;
19285;SDS011;9776;50.798;6.430;2023-04-25T06:30:20;9.80;;;3.72;;
19285;SDS011;9776;50.798;6.430;2023-04-25T06:32:50;12.90;;;4.35;;
19285;SDS011;9776;50.798;6.430;2023-04-25T06:35:17;13.63;;;3.92;;
19285;SDS011;9776;50.798;6.430;2023-04-25T06:37:44;15.85;;;3.55;;
19285;SDS011;9776;50.798;6.430;2023-04-25T06:40:11;11.60;;;4.00;;
19285;SDS011;9776;50.798;6.430;2023-04-25T06:42:37;10.25;;;3.75;;
19285;SDS011;9776;50.798;6.430;2023-04-25T06:45:04;10.23;;;3.70;;
19285;SDS011;9776;50.798;6.430;2023-04-25T06:47:33;10.23;;;3.70;;
19285;SDS011;9776;50.798;6.430;2023-04-25T06:50:00;8.98;;;3.05;;
19285;SDS011;9776;50.798;6.430;2023-04-25T06:52:26;13.02;;;4.38;;
19285;SDS011;9776;50.798;6.430;2023-04-25T06:54:53;9.90;;;3.35;;
19285;SDS011;9776;50.798;6.430;2023-04-25T06:57:19;11.00;;;3.60;;
19285;SDS011;9776;50.798;6.430;2023-04-25T06:59:46;12.13;;;3.50;;
19285;SDS011;9776;50.798;6.430;2023-04-25T07:02:13;9.25;;;3.60;;
19285;SDS011;9776;50.798;6.430;2023-04-25T07:04:40;12.60;;;3.78;;
19285;SDS011;9776;50.798;6.430;2023-04-25T07:07:07;10.93;;;3.35;;
19285;SDS011;9776;50.798;6.430;2023-04-25T07:09:34;12.07;;;3.40;;
19285;SDS011;9776;50.798;6.430;2023-04-25T07:12:00;8.43;;;2.78;;
19285;SDS011;9776;50.798;6.430;2023-04-25T07:14:27;10.18;;;3.33;;
19285;SDS011;9776;50.798;6.430;2023-04-25T07:16:54;10.80;;;3.10;;
19285;SDS011;9776;50.798;6.430;2023-04-25T07:19:22;11.68;;;2.65;;
19285;SDS011;9776;50.798;6.430;2023-04-25T07:21:52;11.73;;;2.70;;
19285;SDS011;9776;50.798;6.430;2023-04-25T07:24:19;9.27;;;2.30;;
19285;SDS011;9776;50.798;6.430;2023-04-25T07:26:46;12.90;;;3.00;;
19285;SDS011;9776;50.798;6.430;2023-04-25T07:29:12;9.80;;;2.78;;
19285;SDS011;9776;50.798;6.430;2023-04-25T07:31:39;7.50;;;2.60;;
19285;SDS011;9776;50.798;6.430;2023-04-25T07:34:06;5.90;;;2.38;;
19285;SDS011;9776;50.798;6.430;2023-04-25T07:36:33;6.90;;;2.40;;
19285;SDS011;9776;50.798;6.430;2023-04-25T07:39:01;8.98;;;2.50;;
19285;SDS011;9776;50.798;6.430;2023-04-25T07:41:28;7.43;;;2.42;;
19285;SDS011;9776;50.798;6.430;2023-04-25T07:43:54;6.18;;;2.22;;
19285;SDS011;9776;50.798;6.430;2023-04-25T07:46:21;8.65;;;2.53;;
19285;SDS011;9776;50.798;6.430;2023-04-25T07:48:48;12.57;;;2.50;;
19285;SDS011;9776;50.798;6.430;2023-04-25T07:51:14;12.68;;;2.40;;
19285;SDS011;9776;50.798;6.430;2023-04-25T07:53:41;8.55;;;2.78;;
19285;SDS011;9776;50.798;6.430;2023-04-25T07:56:10;9.32;;;3.30;;
19285;SDS011;9776;50.798;6.430;2023-04-25T07:58:36;8.77;;;3.05;;
19285;SDS011;9776;50.798;6.430;2023-04-25T08:01:03;9.88;;;2.35;;
19285;SDS011;9776;50.798;6.430;2023-04-25T08:03:30;10.80;;;3.03;;
19285;SDS011;9776;50.798;6.430;2023-04-25T08:05:56;10.00;;;3.00;;
19285;SDS011;9776;50.798;6.430;2023-04-25T08:08:23;10.38;;;2.63;;
19285;SDS011;9776;50.798;6.430;2023-04-25T08:10:50;7.55;;;2.15;;
19285;SDS011;9776;50.798;6.430;2023-04-25T08:13:18;5.28;;;2.22;;
19285;SDS011;9776;50.798;6.430;2023-04-25T08:15:45;8.77;;;2.72;;
19285;SDS011;9776;50.798;6.430;2023-04-25T08:18:11;8.23;;;2.20;;
19285;SDS011;9776;50.798;6.430;2023-04-25T08:20:38;11.45;;;2.72;;
19285;SDS011;9776;50.798;6.430;2023-04-25T08:23:05;7.55;;;2.78;;
19285;SDS011;9776;50.798;6.430;2023-04-25T08:25:32;7.88;;;2.10;;
19285;SDS011;9776;50.798;6.430;2023-04-25T08:27:59;7.78;;;2.47;;
19285;SDS011;9776;50.798;6.430;2023-04-25T08:30:29;9.77;;;2.28;;
19285;SDS011;9776;50.798;6.430;2023-04-25T08:32:56;6.20;;;1.92;;
19285;SDS011;9776;50.798;6.430;2023-04-25T08:35:22;7.55;;;1.80;;
19285;SDS011;9776;50.798;6.430;2023-04-25T08:37:49;3.65;;;1.60;;
19285;SDS011;9776;50.798;6.430;2023-04-25T08:40:16;8.82;;;1.70;;
19285;SDS011;9776;50.798;6.430;2023-04-25T08:42:42;6.40;;;1.65;;
19285;SDS011;9776;50.798;6.430;2023-04-25T08:45:09;6.70;;;1.75;;
19285;SDS011;9776;50.798;6.430;2023-04-25T08:47:38;4.40;;;1.70;;
19285;SDS011;9776;50.798;6.430;2023-04-25T08:50:06;8.30;;;1.90;;
19285;SDS011;9776;50.798;6.430;2023-04-25T08:52:35;6.00;;;1.63;;
19285;SDS011;9776;50.798;6.430;2023-04-25T08:55:03;5.00;;;1.50;;
19285;SDS011;9776;50.798;6.430;2023-04-25T08:57:33;4.30;;;1.40;;
19285;SDS011;9776;50.798;6.430;2023-04-25T09:00:01;8.63;;;1.60;;
19285;SDS011;9776;50.798;6.430;2023-04-25T09:02:29;5.22;;;1.58;;
19285;SDS011;9776;50.798;6.430;2023-04-25T09:04:57;5.15;;;1.40;;
19285;SDS011;9776;50.798;6.430;2023-04-25T09:07:24;3.03;;;1.45;;
19285;SDS011;9776;50.798;6.430;2023-04-25T09:09:50;6.10;;;1.40;;
19285;SDS011;9776;50.798;6.430;2023-04-25T09:12:18;3.75;;;1.02;;
19285;SDS011;9776;50.798;6.430;2023-04-25T09:15:00;4.40;;;1.42;;
19285;SDS011;9776;50.798;6.430;2023-04-25T09:17:29;5.93;;;1.48;;
19285;SDS011;9776;50.798;6.430;2023-04-25T09:19:55;4.63;;;1.13;;
19285;SDS011;9776;50.798;6.430;2023-04-25T09:22:34;4.03;;;1.30;;
19285;SDS011;9776;50.798;6.430;2023-04-25T09:25:02;5.35;;;1.60;;
19285;SDS011;9776;50.798;6.430;2023-04-25T09:27:29;5.00;;;1.42;;
19285;SDS011;9776;50.798;6.430;2023-04-25T09:29:57;5.57;;;1.42;;
19285;SDS011;9776;50.798;6.430;2023-04-25T09:32:25;4.63;;;1.55;;
19285;SDS011;9776;50.798;6.430;2023-04-25T09:34:53;6.28;;;1.90;;
19285;SDS011;9776;50.798;6.430;2023-04-25T09:37:23;6.50;;;1.73;;
19285;SDS011;9776;50.798;6.430;2023-04-25T09:39:52;4.47;;;1.35;;
19285;SDS011;9776;50.798;6.430;2023-04-25T09:42:21;6.30;;;1.77;;
19285;SDS011;9776;50.798;6.430;2023-04-25T09:44:49;3.85;;;1.60;;
19285;SDS011;9776;50.798;6.430;2023-04-25T09:47:18;3.88;;;1.70;;
19285;SDS011;9776;50.798;6.430;2023-04-25T09:49:46;4.20;;;1.48;;
19285;SDS011;9776;50.798;6.430;2023-04-25T09:52:14;7.05;;;2.05;;
19285;SDS011;9776;50.798;6.430;2023-04-25T09:54:43;5.90;;;1.98;;
19285;SDS011;9776;50.798;6.430;2023-04-25T09:57:11;8.20;;;2.45;;
19285;SDS011;9776;50.798;6.430;2023-04-25T09:59:41;7.30;;;2.17;;
19285;SDS011;9776;50.798;6.430;2023-04-25T10:02:12;5.05;;;1.67;;
19285;SDS011;9776;50.798;6.430;2023-04-25T10:04:41;5.93;;;2.20;;
19285;SDS011;9776;50.798;6.430;2023-04-25T10:07:08;4.82;;;2.13;;
19285;SDS011;9776;50.798;6.430;2023-04-25T10:09:36;7.03;;;2.00;;
19285;SDS011;9776;50.798;6.430;2023-04-25T10:12:06;4.88;;;1.90;;
19285;SDS011;9776;50.798;6.430;2023-04-25T10:14:33;8.15;;;1.92;;
19285;SDS011;9776;50.798;6.430;2023-04-25T10:17:01;7.60;;;2.22;;
19285;SDS011;9776;50.798;6.430;2023-04-25T10:19:29;6.30;;;2.28;;
19285;SDS011;9776;50.798;6.430;2023-04-25T10:22:02;7.72;;;2.20;;
19285;SDS011;9776;50.798;6.430;2023-04-25T10:24:32;6.65;;;2.40;;
19285;SDS011;9776;50.798;6.430;2023-04-25T10:26:58;7.60;;;2.78;;
19285;SDS011;9776;50.798;6.430;2023-04-25T10:29:28;8.35;;;2.33;;
19285;SDS011;9776;50.798;6.430;2023-04-25T10:31:54;4.28;;;1.92;;
19285;SDS011;9776;50.798;6.430;2023-04-25T10:34:23;5.15;;;2.00;;
19285;SDS011;9776;50.798;6.430;2023-04-25T10:36:51;4.85;;;1.50;;
19285;SDS011;9776;50.798;6.430;2023-04-25T10:39:22;5.40;;;1.67;;
19285;SDS011;9776;50.798;6.430;2023-04-25T10:41:53;3.88;;;1.90;;
19285;SDS011;9776;50.798;6.430;2023-04-25T10:44:22;5.82;;;2.00;;
19285;SDS011;9776;50.798;6.430;2023-04-25T10:46:54;5.45;;;2.13;;
19285;SDS011;9776;50.798;6.430;2023-04-25T10:49:31;7.88;;;2.35;;
19285;SDS011;9776;50.798;6.430;2023-04-25T10:52:11;6.88;;;1.92;;
19285;SDS011;9776;50.798;6.430;2023-04-25T10:54:43;7.05;;;1.65;;
19285;SDS011;9776;50.798;6.430;2023-04-25T10:57:29;4.45;;;1.77;;
19285;SDS011;9776;50.798;6.430;2023-04-25T11:00:01;4.78;;;1.90;;
19285;SDS011;9776;50.798;6.430;2023-04-25T11:02:37;6.35;;;1.95;;
19285;SDS011;9776;50.798;6.430;2023-04-25T11:05:08;4.03;;;1.63;;
19285;SDS011;9776;50.798;6.430;2023-04-25T11:07:38;8.55;;;1.90;;
19285;SDS011;9776;50.798;6.430;2023-04-25T11:10:10;4.22;;;1.80;;
19285;SDS011;9776;50.798;6.430;2023-04-25T11:12:37;5.22;;;1.80;;
19285;SDS011;9776;50.798;6.430;2023-04-25T11:15:04;5.93;;;1.90;;
19285;SDS011;9776;50.798;6.430;2023-04-25T11:17:33;4.68;;;1.58;;
19285;SDS011;9776;50.798;6.430;2023-04-25T11:20:01;4.32;;;1.52;;
19285;SDS011;9776;50.798;6.430;2023-04-25T11:22:31;6.47;;;1.90;;
19285;SDS011;9776;50.798;6.430;2023-04-25T11:25:04;3.58;;;1.52;;
19285;SDS011;9776;50.798;6.430;2023-04-25T11:27:31;7.10;;;2.25;;
19285;SDS011;9776;50.798;6.430;2023-04-25T11:29:58;6.78;;;2.00;;
19285;SDS011;9776;50.798;6.430;2023-04-25T11:32:25;6.47;;;2.60;;
19285;SDS011;9776;50.798;6.430;2023-04-25T11:34:52;7.55;;;2.22;;
19285;SDS011;9776;50.798;6.430;2023-04-25T11:37:20;6.20;;;2.08;;
19285;SDS011;9776;50.798;6.430;2023-04-25T11:39:47;6.78;;;2.05;;
19285;SDS011;9776;50.798;6.430;2023-04-25T11:42:14;5.20;;;2.00;;
19285;SDS011;9776;50.798;6.430;2023-04-25T11:44:40;7.28;;;1.98;;
19285;SDS011;9776;50.798;6.430;2023-04-25T11:47:07;6.28;;;1.98;;
19285;SDS011;9776;50.798;6.430;2023-04-25T11:49:33;5.30;;;1.65;;
19285;SDS011;9776;50.798;6.430;2023-04-25T11:52:01;2.97;;;1.40;;
19285;SDS011;9776;50.798;6.430;2023-04-25T11:54:29;4.63;;;1.80;;
19285;SDS011;9776;50.798;6.430;2023-04-25T11:56:56;6.95;;;1.45;;
19285;SDS011;9776;50.798;6.430;2023-04-25T11:59:23;11.07;;;1.90;;
19285;SDS011;9776;50.798;6.430;2023-04-25T12:01:51;5.57;;;1.58;;
19285;SDS011;9776;50.798;6.430;2023-04-25T12:04:19;7.38;;;1.63;;
19285;SDS011;9776;50.798;6.430;2023-04-25T12:06:47;5.63;;;1.88;;
19285;SDS011;9776;50.798;6.430;2023-04-25T12:09:18;7.40;;;2.00;;
19285;SDS011;9776;50.798;6.430;2023-04-25T12:11:49;5.60;;;1.90;;
19285;SDS011;9776;50.798;6.430;2023-04-25T12:14:22;5.65;;;1.77;;
19285;SDS011;9776;50.798;6.430;2023-04-25T12:16:51;4.38;;;1.77;;
19285;SDS011;9776;50.798;6.430;2023-04-25T12:19:19;7.13;;;1.98;;
19285;SDS011;9776;50.798;6.430;2023-04-25T12:21:46;4.60;;;1.77;;
19285;SDS011;9776;50.798;6.430;2023-04-25T12:24:14;6.60;;;1.90;;
19285;SDS011;9776;50.798;6.430;2023-04-25T12:26:52;8.93;;;1.98;;
19285;SDS011;9776;50.798;6.430;2023-04-25T12:29:20;5.43;;;1.77;;
19285;SDS011;9776;50.798;6.430;2023-04-25T12:31:48;6.03;;;1.70;;
19285;SDS011;9776;50.798;6.430;2023-04-25T12:34:16;4.72;;;1.75;;
19285;SDS011;9776;50.798;6.430;2023-04-25T12:36:42;5.40;;;2.10;;
19285;SDS011;9776;50.798;6.430;2023-04-25T12:39:13;8.80;;;2.15;;
19285;SDS011;9776;50.798;6.430;2023-04-25T12:41:40;5.25;;;1.75;;
19285;SDS011;9776;50.798;6.430;2023-04-25T12:44:08;5.88;;;2.10;;
19285;SDS011;9776;50.798;6.430;2023-04-25T12:46:35;7.25;;;1.75;;
19285;SDS011;9776;50.798;6.430;2023-04-25T12:49:02;5.47;;;1.88;;
19285;SDS011;9776;50.798;6.430;2023-04-25T12:51:29;4.28;;;1.80;;
19285;SDS011;9776;50.798;6.430;2023-04-25T12:53:57;4.35;;;1.60;;
19285;SDS011;9776;50.798;6.430;2023-04-25T12:56:24;4.47;;;1.60;;
19285;SDS011;9776;50.798;6.430;2023-04-25T12:58:51;5.05;;;1.80;;
19285;SDS011;9776;50.798;6.430;2023-04-25T13:01:20;4.57;;;1.60;;
19285;SDS011;9776;50.798;6.430;2023-04-25T13:03:46;5.95;;;1.73;;
19285;SDS011;9776;50.798;6.430;2023-04-25T13:06:13;5.70;;;1.50;;
19285;SDS011;9776;50.798;6.430;2023-04-25T13:08:40;5.95;;;1.80;;
19285;SDS011;9776;50.798;6.430;2023-04-25T13:11:07;5.18;;;1.60;;
19285;SDS011;9776;50.798;6.430;2023-04-25T13:13:34;6.38;;;1.58;;
19285;SDS011;9776;50.798;6.430;2023-04-25T13:16:01;7.00;;;1.70;;
19285;SDS011;9776;50.798;6.430;2023-04-25T13:18:29;4.18;;;1.38;;
19285;SDS011;9776;50.798;6.430;2023-04-25T13:20:57;5.43;;;1.90;;
19285;SDS011;9776;50.798;6.430;2023-04-25T13:23:25;4.72;;;1.75;;
19285;SDS011;9776;50.798;6.430;2023-04-25T13:25:52;4.10;;;1.58;;
19285;SDS011;9776;50.798;6.430;2023-04-25T13:28:20;5.70;;;1.65;;
19285;SDS011;9776;50.798;6.430;2023-04-25T13:30:47;3.72;;;1.70;;
19285;SDS011;9776;50.798;6.430;2023-04-25T13:33:14;5.95;;;2.03;;
19285;SDS011;9776;50.798;6.430;2023-04-25T13:35:42;4.68;;;1.50;;
19285;SDS011;9776;50.798;6.430;2023-04-25T13:38:11;4.20;;;1.63;;
19285;SDS011;9776;50.798;6.430;2023-04-25T13:40:38;4.25;;;1.30;;
19285;SDS011;9776;50.798;6.430;2023-04-25T13:43:05;6.05;;;2.60;;
19285;SDS011;9776;50.798;6.430;2023-04-25T13:45:32;5.68;;;2.03;;
19285;SDS011;9776;50.798;6.430;2023-04-25T13:47:58;4.32;;;1.90;;
19285;SDS011;9776;50.798;6.430;2023-04-25T13:50:25;5.53;;;1.90;;
19285;SDS011;9776;50.798;6.430;2023-04-25T13:52:53;3.78;;;1.50;;
19285;SDS011;9776;50.798;6.430;2023-04-25T13:55:20;3.60;;;1.35;;
19285;SDS011;9776;50.798;6.430;2023-04-25T13:57:46;3.67;;;1.30;;
19285;SDS011;9776;50.798;6.430;2023-04-25T14:00:13;2.53;;;1.20;;
19285;SDS011;9776;50.798;6.430;2023-04-25T14:02:41;3.05;;;1.30;;
19285;SDS011;9776;50.798;6.430;2023-04-25T14:05:07;3.45;;;1.10;;
19285;SDS011;9776;50.798;6.430;2023-04-25T14:07:35;7.18;;;1.90;;
19285;SDS011;9776;50.798;6.430;2023-04-25T14:10:03;2.50;;;0.88;;
19285;SDS011;9776;50.798;6.430;2023-04-25T14:12:30;1.75;;;1.00;;
19285;SDS011;9776;50.798;6.430;2023-04-25T14:14:58;3.78;;;1.73;;
19285;SDS011;9776;50.798;6.430;2023-04-25T14:17:25;3.53;;;1.10;;
19285;SDS011;9776;50.798;6.430;2023-04-25T14:19:51;3.25;;;1.27;;
19285;SDS011;9776;50.798;6.430;2023-04-25T14:22:18;5.35;;;1.40;;
19285;SDS011;9776;50.798;6.430;2023-04-25T14:24:45;2.75;;;1.25;;
19285;SDS011;9776;50.798;6.430;2023-04-25T14:27:13;4.30;;;1.20;;
19285;SDS011;9776;50.798;6.430;2023-04-25T14:29:39;4.22;;;1.45;;
19285;SDS011;9776;50.798;6.430;2023-04-25T14:32:06;4.95;;;1.33;;
19285;SDS011;9776;50.798;6.430;2023-04-25T14:34:33;4.13;;;1.42;;
19285;SDS011;9776;50.798;6.430;2023-04-25T14:36:59;3.78;;;1.40;;
19285;SDS011;9776;50.798;6.430;2023-04-25T14:39:26;6.05;;;1.50;;
19285;SDS011;9776;50.798;6.430;2023-04-25T14:41:53;6.18;;;2.80;;
19285;SDS011;9776;50.798;6.430;2023-04-25T14:44:20;27.67;;;14.93;;
19285;SDS011;9776;50.798;6.430;2023-04-25T14:46:47;14.30;;;8.27;;
19285;SDS011;9776;50.798;6.430;2023-04-25T14:49:16;7.47;;;1.90;;
19285;SDS011;9776;50.798;6.430;2023-04-25T14:51:43;4.57;;;1.80;;
19285;SDS011;9776;50.798;6.430;2023-04-25T14:54:09;7.22;;;2.10;;
19285;SDS011;9776;50.798;6.430;2023-04-25T14:56:37;6.03;;;2.40;;
19285;SDS011;9776;50.798;6.430;2023-04-25T14:59:03;4.13;;;3.08;;